Weather at Charles M. Schulz Sonoma County Airport

Public forecast

Using degrees Fahrenheit for public forecast. Weather courtesy of forecast.io.

Current aviation weather report (METAR) for Charles M. Schulz Sonoma County Airport

2024/05/29 16:53 (retrieved 60 minutes ago)

KSTS 291653Z 01011KT 10SM CLR 21/07 A3010 RMK AO2 SLP186 T02110072

Aviation forecast (TAF) for Charles M. Schulz Sonoma County Airport

2024/05/29 12:40 (retrieved 5 hours ago)

TAF KSTS 291138Z 2912/3012 33006KT P6SM SKC FM292000 33010KT P6SM SKC FM300500 32005KT P6SM SKC FM301000 18003KT 6SM BR SKC